Time;durP1;ratioP1;P1;durP2;ratioP2;P2;SDS_P1;SDS_P2;PMS_P1;PMS_P2;Temp;Humidity;BMP_temperature;BMP_pressure;BME280_temperature;BME280_humidity;BME280_pressure;Samples;Min_cycle;Max_cycle;Signal;HPM_P1;HPM_P2
2024/01/06 00:00:06;;;;;;;2.55;1.10;;;21.70;43.20;;;;;;10232669;28;20162;-45
2024/01/06 00:05:09;;;;;;;2.13;1.15;;;21.80;43.20;;;;;;10249095;28;20062;-45
2024/01/06 00:10:11;;;;;;;1.42;1.00;;;21.70;43.30;;;;;;10248730;28;20051;-45
2024/01/06 00:15:13;;;;;;;3.03;0.98;;;21.80;43.20;;;;;;10253231;28;20493;-45
2024/01/06 00:20:16;;;;;;;1.17;1.00;;;21.70;43.30;;;;;;10256226;28;20521;-45
2024/01/06 00:25:17;;;;;;;3.60;1.00;;;21.80;43.10;;;;;;10237301;28;20050;-45
2024/01/06 00:30:19;;;;;;;1.92;1.10;;;21.80;43.10;;;;;;10238738;28;20052;-45
2024/01/06 00:35:22;;;;;;;1.85;1.20;;;21.70;43.10;;;;;;10238496;28;20047;-47
2024/01/06 00:40:24;;;;;;;1.85;0.88;;;21.70;43.30;;;;;;10239623;28;20130;-47
2024/01/06 00:45:25;;;;;;;3.17;0.90;;;21.70;43.20;;;;;;10240421;28;20047;-45
2024/01/06 00:50:28;;;;;;;2.10;1.00;;;21.70;43.20;;;;;;10239500;28;20054;-46
2024/01/06 00:55:30;;;;;;;2.53;1.15;;;21.70;43.10;;;;;;10263595;28;20053;-46
2024/01/06 01:00:31;;;;;;;1.20;0.90;;;21.70;43.00;;;;;;10244727;28;20576;-45
2024/01/06 01:05:34;;;;;;;1.10;1.00;;;21.70;43.20;;;;;;10235438;28;20545;-45
2024/01/06 01:10:36;;;;;;;1.42;0.80;;;21.60;43.20;;;;;;10253720;28;20456;-45
2024/01/06 01:15:37;;;;;;;2.30;1.08;;;21.60;43.30;;;;;;10242875;28;20126;-46
2024/01/06 01:20:41;;;;;;;1.10;0.90;;;21.60;43.40;;;;;;10250472;28;20039;-46
2024/01/06 01:25:43;;;;;;;1.58;0.90;;;21.60;43.40;;;;;;10232619;28;20423;-47
2024/01/06 01:30:44;;;;;;;1.13;0.90;;;21.60;43.40;;;;;;10241741;28;20473;-45
2024/01/06 01:35:47;;;;;;;0.85;0.80;;;21.50;43.60;;;;;;10232707;28;20046;-44
2024/01/06 01:40:49;;;;;;;1.17;0.70;;;21.60;43.40;;;;;;10235589;28;20101;-45
2024/01/06 01:45:53;;;;;;;2.00;0.90;;;21.60;43.30;;;;;;10238524;28;20047;-45
2024/01/06 01:50:56;;;;;;;1.25;0.82;;;21.60;43.20;;;;;;10241871;28;20054;-45
2024/01/06 01:55:58;;;;;;;1.67;0.90;;;21.60;43.20;;;;;;10250311;28;20050;-46
2024/01/06 02:00:59;;;;;;;3.05;1.02;;;21.60;43.30;;;;;;10241529;28;20150;-45
2024/01/06 02:06:02;;;;;;;2.53;1.00;;;21.60;43.30;;;;;;10228910;28;20143;-45
2024/01/06 02:11:04;;;;;;;1.83;0.90;;;21.50;43.30;;;;;;10228162;28;20057;-45
2024/01/06 02:16:06;;;;;;;1.00;0.80;;;21.50;43.20;;;;;;10248916;28;20040;-45
2024/01/06 02:21:09;;;;;;;1.15;0.80;;;21.60;43.20;;;;;;10244798;28;20127;-45
2024/01/06 02:26:13;;;;;;;2.15;0.95;;;21.50;43.20;;;;;;10236451;28;20071;-46
2024/01/06 02:31:14;;;;;;;0.98;0.70;;;21.50;43.30;;;;;;10240715;28;20043;-45
2024/01/06 02:36:16;;;;;;;1.73;0.82;;;21.40;43.40;;;;;;10229580;28;20516;-45
2024/01/06 02:41:19;;;;;;;1.70;0.70;;;21.50;43.20;;;;;;10232443;28;20719;-45
2024/01/06 02:46:20;;;;;;;2.85;0.90;;;21.60;43.00;;;;;;10240549;28;20398;-45
2024/01/06 02:51:22;;;;;;;2.03;0.70;;;21.60;43.10;;;;;;10220414;28;20673;-45
2024/01/06 02:56:25;;;;;;;2.25;0.80;;;21.50;43.20;;;;;;10233601;28;20405;-46
2024/01/06 03:01:26;;;;;;;1.00;0.70;;;21.30;43.40;;;;;;10232105;28;20574;-47
2024/01/06 03:06:28;;;;;;;1.08;0.80;;;21.30;43.50;;;;;;10242067;28;20066;-45
2024/01/06 03:11:31;;;;;;;1.27;0.77;;;21.40;43.40;;;;;;10238484;28;20051;-47
2024/01/06 03:16:34;;;;;;;1.35;0.70;;;21.40;43.30;;;;;;10226434;28;20050;-45
2024/01/06 03:21:36;;;;;;;1.05;0.77;;;21.50;43.10;;;;;;10228150;28;20053;-45
2024/01/06 03:26:39;;;;;;;2.20;1.00;;;21.40;43.10;;;;;;10234530;28;20059;-48
2024/01/06 03:31:43;;;;;;;1.17;0.80;;;21.40;43.10;;;;;;10239312;28;20051;-45
2024/01/06 03:36:44;;;;;;;0.80;0.80;;;21.40;43.10;;;;;;10239185;28;20050;-45
2024/01/06 03:41:49;;;;;;;1.20;0.70;;;21.30;43.20;;;;;;10242582;28;20049;-45
2024/01/06 03:46:50;;;;;;;1.17;0.90;;;21.30;43.20;;;;;;10240964;28;20047;-46
2024/01/06 03:51:52;;;;;;;0.85;0.73;;;21.40;43.20;;;;;;10240783;28;20050;-46
2024/01/06 03:56:55;;;;;;;1.17;0.95;;;21.30;43.20;;;;;;10230356;28;20490;-45
2024/01/06 04:01:56;;;;;;;2.17;0.90;;;21.20;43.30;;;;;;10230615;28;20565;-45
2024/01/06 04:06:58;;;;;;;1.95;0.73;;;21.50;43.40;;;;;;10241594;29;20502;-45
2024/01/06 04:12:02;;;;;;;0.88;0.73;;;22.10;42.50;;;;;;10234673;28;20146;-45
2024/01/06 04:17:03;;;;;;;1.20;0.90;;;22.50;41.90;;;;;;10238307;28;20498;-46
2024/01/06 04:22:05;;;;;;;2.03;0.80;;;22.80;41.40;;;;;;10240393;28;20047;-45
2024/01/06 04:27:09;;;;;;;1.05;0.90;;;23.00;41.10;;;;;;10242928;28;20062;-45
2024/01/06 04:32:11;;;;;;;2.08;0.88;;;23.10;40.90;;;;;;10233199;28;20062;-45
2024/01/06 04:37:12;;;;;;;0.88;0.75;;;23.20;40.70;;;;;;10232781;28;20046;-45
2024/01/06 04:42:15;;;;;;;0.73;0.70;;;23.40;40.40;;;;;;10239168;28;20509;-44
2024/01/06 04:47:17;;;;;;;1.85;0.93;;;23.60;40.20;;;;;;10248321;28;20059;-45
2024/01/06 04:52:19;;;;;;;1.80;0.98;;;23.60;40.10;;;;;;10242526;28;20073;-45
2024/01/06 04:57:22;;;;;;;1.27;0.90;;;23.70;39.90;;;;;;10232657;28;20061;-46
2024/01/06 05:02:24;;;;;;;0.80;0.80;;;23.70;39.80;;;;;;10230130;28;20054;-45
2024/01/06 05:07:25;;;;;;;0.80;0.80;;;23.70;39.80;;;;;;10233142;28;20128;-48
2024/01/06 05:12:28;;;;;;;2.60;0.80;;;23.80;39.70;;;;;;10241385;28;20058;-47
2024/01/06 05:17:30;;;;;;;2.25;1.00;;;23.60;39.80;;;;;;10252788;28;20046;-45
2024/01/06 05:22:31;;;;;;;1.95;1.00;;;23.40;40.10;;;;;;10233410;28;20051;-47
2024/01/06 05:27:34;;;;;;;3.00;1.25;;;23.40;40.10;;;;;;10245251;28;20043;-45
2024/01/06 05:32:36;;;;;;;0.95;0.85;;;23.50;40.00;;;;;;10234762;28;20051;-45
2024/01/06 05:37:37;;;;;;;0.98;0.88;;;23.60;39.90;;;;;;10241914;28;20581;-45
2024/01/06 05:42:41;;;;;;;1.00;0.82;;;23.70;39.90;;;;;;10237851;28;20043;-45
2024/01/06 05:47:43;;;;;;;0.98;0.85;;;23.70;40.00;;;;;;10234062;28;20051;-45
2024/01/06 05:52:44;;;;;;;0.82;0.80;;;23.80;40.00;;;;;;10230723;28;20053;-45
2024/01/06 05:57:47;;;;;;;1.50;0.80;;;23.90;39.90;;;;;;10232163;28;20042;-45
2024/01/06 06:02:49;;;;;;;2.08;0.85;;;23.90;39.90;;;;;;10245148;28;20057;-44
2024/01/06 06:07:50;;;;;;;2.28;1.08;;;23.60;40.50;;;;;;10243699;28;20058;-45
2024/01/06 06:12:53;;;;;;;3.30;0.88;;;23.50;40.70;;;;;;10256049;28;20043;-47
2024/01/06 06:17:55;;;;;;;1.02;0.85;;;23.30;40.90;;;;;;10241782;28;20043;-45
2024/01/06 06:22:57;;;;;;;1.65;1.00;;;23.30;41.10;;;;;;10232682;28;20134;-45
2024/01/06 06:28:00;;;;;;;1.33;0.90;;;23.20;41.20;;;;;;10233793;28;20054;-45
2024/01/06 06:33:01;;;;;;;2.30;1.10;;;23.60;40.70;;;;;;10246531;28;20057;-48
2024/01/06 06:38:03;;;;;;;1.60;0.90;;;23.60;40.70;;;;;;10233300;28;20047;-48
2024/01/06 06:43:06;;;;;;;1.33;1.00;;;23.60;40.90;;;;;;10244580;28;20051;-45
2024/01/06 06:48:08;;;;;;;4.10;0.93;;;23.60;40.90;;;;;;10238939;28;20055;-47
2024/01/06 06:53:09;;;;;;;1.35;1.05;;;23.70;40.80;;;;;;10232644;28;20417;-45
2024/01/06 06:58:12;;;;;;;1.45;1.00;;;23.70;40.70;;;;;;10245418;28;20412;-46
2024/01/06 07:03:14;;;;;;;0.98;0.82;;;23.70;40.70;;;;;;10245082;28;20500;-45
2024/01/06 07:08:16;;;;;;;4.28;1.30;;;23.80;40.70;;;;;;10240875;28;20486;-45
2024/01/06 07:13:19;;;;;;;3.38;1.60;;;23.80;40.50;;;;;;10244515;28;20469;-46
2024/01/06 07:18:23;;;;;;;5.78;1.92;;;23.60;38.70;;;;;;10235157;28;20043;-49
2024/01/06 07:23:25;;;;;;;1.58;1.10;;;23.70;39.20;;;;;;10231578;28;20053;-45
2024/01/06 07:28:29;;;;;;;1.85;1.38;;;23.90;39.20;;;;;;10233509;28;20130;-45
2024/01/06 07:33:30;;;;;;;6.82;1.65;;;24.00;39.40;;;;;;10260047;28;20043;-45
2024/01/06 07:38:32;;;;;;;2.05;1.20;;;24.00;39.80;;;;;;10223517;28;20146;-46
2024/01/06 07:43:35;;;;;;;7.22;1.40;;;24.00;39.90;;;;;;10229660;28;20051;-45
2024/01/06 07:48:36;;;;;;;4.72;1.20;;;24.10;40.00;;;;;;10239792;28;20050;-46
2024/01/06 07:53:38;;;;;;;2.72;1.30;;;24.10;40.00;;;;;;10234608;28;20056;-47
2024/01/06 07:58:41;;;;;;;5.72;1.70;;;24.00;40.30;;;;;;10228012;28;20044;-47
2024/01/06 08:03:43;;;;;;;5.40;1.35;;;24.00;41.30;;;;;;10234322;28;20039;-45
2024/01/06 08:08:46;;;;;;;5.68;1.50;;;24.10;40.70;;;;;;10228545;28;20047;-45
2024/01/06 08:13:49;;;;;;;2.42;1.30;;;24.10;40.70;;;;;;10202336;28;20048;-46
2024/01/06 08:18:50;;;;;;;5.35;1.67;;;24.10;40.60;;;;;;10198984;28;20219;-45
2024/01/06 08:23:52;;;;;;;10.55;1.60;;;24.00;41.40;;;;;;10234773;28;20140;-49
2024/01/06 08:28:55;;;;;;;5.47;1.50;;;24.00;42.40;;;;;;10237673;28;20043;-45
2024/01/06 08:33:56;;;;;;;6.82;1.33;;;24.00;43.10;;;;;;10244085;28;20058;-46
2024/01/06 08:38:58;;;;;;;4.50;2.15;;;24.10;43.20;;;;;;10232121;28;20067;-45
2024/01/06 08:44:01;;;;;;;7.32;1.83;;;24.10;43.80;;;;;;10236225;28;20142;-46
2024/01/06 08:49:03;;;;;;;5.13;1.90;;;24.10;43.70;;;;;;10239266;28;20051;-43
2024/01/06 08:54:05;;;;;;;13.25;2.78;;;24.10;42.60;;;;;;10238232;28;20074;-44
2024/01/06 08:59:09;;;;;;;35.45;20.77;;;24.00;41.90;;;;;;10229007;28;20132;-44
2024/01/06 09:04:11;;;;;;;42.83;29.30;;;24.00;42.50;;;;;;10232352;28;20048;-47
2024/01/06 09:09:13;;;;;;;43.15;29.42;;;23.80;42.50;;;;;;10232757;28;20058;-47
2024/01/06 09:14:17;;;;;;;30.08;21.85;;;23.60;42.80;;;;;;10226948;28;20090;-42
2024/01/06 09:19:19;;;;;;;29.88;20.15;;;23.60;42.20;;;;;;10239892;28;20486;-45
2024/01/06 09:24:21;;;;;;;25.33;17.30;;;23.60;42.50;;;;;;10234427;28;20078;-43
2024/01/06 09:29:24;;;;;;;17.35;12.52;;;23.60;42.60;;;;;;10240559;28;20152;-43
2024/01/06 09:34:25;;;;;;;17.80;12.20;;;23.30;42.10;;;;;;10237956;28;20043;-44
2024/01/06 09:39:27;;;;;;;15.80;11.93;;;23.40;42.80;;;;;;10226176;28;20047;-43
2024/01/06 09:44:30;;;;;;;13.98;10.57;;;23.50;41.90;;;;;;10227695;28;20057;-46
2024/01/06 09:49:32;;;;;;;19.05;11.07;;;23.60;41.70;;;;;;10245647;28;20062;-42
2024/01/06 09:54:34;;;;;;;15.02;10.23;;;23.50;41.60;;;;;;10234477;28;20043;-42
2024/01/06 09:59:37;;;;;;;13.07;10.18;;;23.50;42.30;;;;;;10235234;28;20073;-44
2024/01/06 10:04:39;;;;;;;13.43;9.43;;;23.60;41.60;;;;;;10232278;28;20134;-48
2024/01/06 10:09:41;;;;;;;12.35;9.63;;;23.50;41.70;;;;;;10234541;28;20531;-43
2024/01/06 10:14:44;;;;;;;13.10;8.73;;;23.40;41.60;;;;;;10235727;28;20608;-42
2024/01/06 10:19:47;;;;;;;11.95;8.60;;;23.60;41.40;;;;;;10230852;28;20051;-45
2024/01/06 10:24:49;;;;;;;10.95;8.27;;;23.60;41.20;;;;;;10232782;28;20143;-43
2024/01/06 10:29:52;;;;;;;10.95;7.80;;;23.60;41.10;;;;;;10190574;28;20138;-44
2024/01/06 10:34:53;;;;;;;10.50;7.47;;;23.60;41.10;;;;;;10194351;28;20083;-45
2024/01/06 10:40:09;;;;;;;10.88;6.57;;;23.30;41.30;;;;;;10193213;28;20056;-43
2024/01/06 10:45:12;;;;;;;12.75;5.97;;;23.40;41.90;;;;;;10201229;28;20047;-48
2024/01/06 10:50:14;;;;;;;13.13;5.85;;;23.30;42.10;;;;;;10225205;28;20428;-42
2024/01/06 10:55:17;;;;;;;12.40;6.25;;;23.20;42.40;;;;;;10222851;28;20043;-43
2024/01/06 11:00:21;;;;;;;15.50;5.30;;;23.20;42.40;;;;;;10232825;28;20474;-45
2024/01/06 11:05:22;;;;;;;11.10;5.28;;;23.20;42.30;;;;;;10231349;28;20055;-43
2024/01/06 11:10:25;;;;;;;8.27;5.07;;;23.30;42.20;;;;;;10229410;28;20083;-43
2024/01/06 11:15:42;;;;;;;9.07;4.78;;;23.40;42.10;;;;;;10221671;28;20502;-43
2024/01/06 11:21:21;;;;;;;9.30;5.25;;;23.40;41.80;;;;;;10222250;28;20063;-44
2024/01/06 11:26:23;;;;;;;7.72;4.25;;;23.30;41.90;;;;;;10226799;28;20151;-44
2024/01/06 11:31:29;;;;;;;7.90;4.40;;;23.30;42.10;;;;;;10216674;28;20078;-44
2024/01/06 11:36:30;;;;;;;8.55;4.25;;;23.30;42.10;;;;;;10188161;28;20048;-45
2024/01/06 11:41:51;;;;;;;6.85;4.43;;;23.30;42.20;;;;;;10192173;29;20138;-42
2024/01/06 11:46:54;;;;;;;5.60;3.88;;;23.30;42.20;;;;;;10188502;29;20135;-44
2024/01/06 11:51:55;;;;;;;6.53;4.00;;;23.30;42.10;;;;;;10199605;29;20055;-47
2024/01/06 11:56:57;;;;;;;5.63;3.65;;;23.40;42.00;;;;;;10192398;29;20058;-44
2024/01/06 12:02:00;;;;;;;5.97;3.63;;;23.50;41.90;;;;;;10189718;29;20075;-43
2024/01/06 12:07:08;;;;;;;4.90;3.58;;;23.50;41.90;;;;;;10190311;29;20142;-43
2024/01/06 12:12:10;;;;;;;5.72;3.55;;;23.50;42.00;;;;;;10193643;29;20059;-42
2024/01/06 12:17:13;;;;;;;4.60;3.65;;;23.50;41.90;;;;;;10196805;29;20135;-42
2024/01/06 12:22:15;;;;;;;4.68;3.70;;;23.70;41.80;;;;;;10195687;29;20059;-43
2024/01/06 12:27:18;;;;;;;4.13;2.85;;;23.80;41.60;;;;;;10187620;28;20139;-47
2024/01/06 12:32:21;;;;;;;4.45;3.08;;;23.90;41.50;;;;;;10188951;29;20083;-45
2024/01/06 12:37:23;;;;;;;3.88;3.22;;;24.00;41.60;;;;;;10195713;29;20150;-42
2024/01/06 12:42:25;;;;;;;4.85;3.25;;;23.90;41.40;;;;;;10191329;28;20044;-47
2024/01/06 12:47:28;;;;;;;6.85;3.10;;;24.00;41.50;;;;;;10192957;28;20047;-44
2024/01/06 12:52:29;;;;;;;9.30;3.08;;;24.10;41.20;;;;;;10190690;28;20047;-45
2024/01/06 12:57:31;;;;;;;5.47;2.58;;;23.90;40.80;;;;;;10191625;28;20052;-44
2024/01/06 13:02:34;;;;;;;4.45;2.42;;;23.80;40.30;;;;;;10200512;28;20058;-44
2024/01/06 13:07:35;;;;;;;4.55;2.10;;;23.80;39.60;;;;;;10196281;28;20136;-43
2024/01/06 13:12:37;;;;;;;10.65;2.40;;;23.70;39.40;;;;;;10188662;28;20048;-43
2024/01/06 13:17:40;;;;;;;17.17;2.33;;;23.90;39.00;;;;;;10184534;29;20040;-44
2024/01/06 13:22:41;;;;;;;13.35;2.00;;;24.10;40.00;;;;;;10187441;28;20437;-43
2024/01/06 13:27:43;;;;;;;15.80;2.03;;;24.10;40.40;;;;;;10191787;28;20439;-42
2024/01/06 13:32:46;;;;;;;5.32;2.00;;;24.20;39.70;;;;;;10190764;28;20078;-43
2024/01/06 13:37:51;;;;;;;5.53;1.92;;;24.20;40.00;;;;;;10192058;29;20163;-47
2024/01/06 13:42:53;;;;;;;6.32;2.22;;;24.30;40.30;;;;;;10187412;28;20134;-43
2024/01/06 13:47:55;;;;;;;7.88;1.90;;;24.30;40.50;;;;;;10194323;29;20079;-49
2024/01/06 13:52:57;;;;;;;2.95;1.48;;;24.40;40.50;;;;;;10182621;29;20045;-43
2024/01/06 13:57:59;;;;;;;3.83;1.48;;;24.40;40.60;;;;;;10186542;28;20067;-47
2024/01/06 14:03:02;;;;;;;4.28;1.55;;;24.50;40.60;;;;;;10195567;29;20048;-43
2024/01/06 14:08:04;;;;;;;2.40;1.38;;;24.50;40.60;;;;;;10192625;29;20060;-44
2024/01/06 14:13:07;;;;;;;3.13;1.42;;;24.50;40.70;;;;;;10194771;28;20058;-45
2024/01/06 14:18:12;;;;;;;2.08;1.17;;;24.50;40.70;;;;;;10190424;28;20059;-43
2024/01/06 14:23:13;;;;;;;2.47;1.20;;;24.50;40.70;;;;;;10181406;28;20056;-43
2024/01/06 14:28:15;;;;;;;6.57;1.48;;;24.60;40.70;;;;;;10182347;29;20579;-44
2024/01/06 14:33:18;;;;;;;4.38;1.45;;;24.60;40.70;;;;;;10187904;28;20485;-43
2024/01/06 14:38:20;;;;;;;2.88;1.50;;;24.60;40.70;;;;;;10192105;28;20069;-43
2024/01/06 14:43:21;;;;;;;4.68;1.55;;;24.70;40.80;;;;;;10185261;29;20047;-44
2024/01/06 14:48:24;;;;;;;4.85;1.65;;;24.70;40.00;;;;;;10190728;28;20052;-47
2024/01/06 14:53:26;;;;;;;4.22;1.50;;;24.70;40.60;;;;;;10186091;28;20102;-43
2024/01/06 14:58:28;;;;;;;4.18;1.60;;;24.90;40.50;;;;;;10187594;28;20043;-43
2024/01/06 15:03:31;;;;;;;5.85;1.40;;;25.00;40.60;;;;;;10194001;28;20140;-45
2024/01/06 15:08:32;;;;;;;2.97;1.40;;;25.00;40.50;;;;;;10179953;28;20138;-43
2024/01/06 15:13:36;;;;;;;8.05;1.42;;;25.00;41.00;;;;;;10182992;29;20138;-44
2024/01/06 15:18:38;;;;;;;5.20;1.40;;;24.90;41.20;;;;;;10192842;28;20505;-43
2024/01/06 15:23:40;;;;;;;9.07;1.80;;;25.00;43.00;;;;;;10193140;28;20456;-43
2024/01/06 15:28:42;;;;;;;11.48;2.15;;;25.10;44.50;;;;;;10199505;28;20436;-43
2024/01/06 15:33:47;;;;;;;10.15;1.80;;;25.30;44.20;;;;;;10193565;28;20384;-43
2024/01/06 15:38:49;;;;;;;5.10;1.80;;;25.40;44.00;;;;;;10200039;28;20574;-43
2024/01/06 15:43:50;;;;;;;4.68;1.63;;;25.20;43.50;;;;;;10199361;28;20059;-43
2024/01/06 15:48:53;;;;;;;4.68;1.48;;;25.30;43.60;;;;;;10238068;28;20047;-42
2024/01/06 15:53:55;;;;;;;3.15;1.90;;;25.30;43.30;;;;;;10240023;28;20051;-43
2024/01/06 15:58:57;;;;;;;2.88;1.58;;;25.30;42.80;;;;;;10238823;28;20498;-43
2024/01/06 16:04:00;;;;;;;3.75;1.70;;;25.30;42.50;;;;;;10201911;28;20044;-43
2024/01/06 16:09:02;;;;;;;8.90;2.00;;;25.20;41.80;;;;;;10199746;28;20475;-45
2024/01/06 16:14:03;;;;;;;6.03;1.90;;;25.20;41.20;;;;;;10196564;28;20075;-43
2024/01/06 16:19:06;;;;;;;4.43;1.70;;;25.10;41.40;;;;;;10230162;28;20052;-44
2024/01/06 16:24:08;;;;;;;5.20;2.03;;;25.30;41.10;;;;;;10232839;28;20040;-43
2024/01/06 16:29:10;;;;;;;5.47;1.80;;;25.30;41.10;;;;;;10228753;28;20044;-42
2024/01/06 16:34:13;;;;;;;5.30;1.73;;;25.30;41.00;;;;;;10238566;28;20067;-46
2024/01/06 16:39:15;;;;;;;4.65;1.60;;;25.20;41.60;;;;;;10242400;28;20048;-43
2024/01/06 16:44:16;;;;;;;12.85;2.53;;;25.20;42.20;;;;;;10234124;28;20061;-43
2024/01/06 16:49:19;;;;;;;4.32;2.00;;;25.10;39.60;;;;;;10203843;28;20048;-42
2024/01/06 16:54:21;;;;;;;5.30;2.30;;;25.10;35.70;;;;;;10197213;29;20044;-43
2024/01/06 16:59:22;;;;;;;5.30;2.35;;;25.10;33.20;;;;;;10198288;28;20055;-43
2024/01/06 17:04:26;;;;;;;6.47;2.30;;;25.10;31.40;;;;;;10194595;28;20523;-43
2024/01/06 17:09:27;;;;;;;5.28;2.20;;;25.10;30.90;;;;;;10239607;28;20047;-43
2024/01/06 17:14:29;;;;;;;6.80;2.15;;;25.20;32.30;;;;;;10242771;28;20126;-43
2024/01/06 17:19:32;;;;;;;6.60;1.90;;;25.30;33.20;;;;;;10234968;28;20043;-43
2024/01/06 17:24:35;;;;;;;6.95;2.25;;;25.40;33.90;;;;;;10234579;28;20047;-45
2024/01/06 17:29:36;;;;;;;5.05;2.20;;;25.40;34.80;;;;;;10224122;28;20486;-43
2024/01/06 17:34:39;;;;;;;6.07;2.33;;;25.40;35.20;;;;;;10191923;28;20144;-47
2024/01/06 17:39:41;;;;;;;7.95;2.25;;;25.50;35.80;;;;;;10230921;28;20107;-45
2024/01/06 17:44:44;;;;;;;6.15;2.20;;;25.40;36.10;;;;;;10228757;28;20117;-44
2024/01/06 17:49:47;;;;;;;5.85;2.30;;;25.50;36.40;;;;;;10231335;28;20093;-43
2024/01/06 17:54:49;;;;;;;8.13;2.45;;;25.50;36.70;;;;;;10232299;28;20055;-43
2024/01/06 17:59:56;;;;;;;8.82;2.38;;;25.60;37.00;;;;;;10235332;28;20134;-43
2024/01/06 18:05:00;;;;;;;7.18;2.30;;;25.60;37.10;;;;;;10235336;28;20047;-43
2024/01/06 18:10:01;;;;;;;6.20;2.25;;;25.60;37.20;;;;;;10229836;28;20492;-48
2024/01/06 18:15:04;;;;;;;6.40;2.33;;;25.60;38.10;;;;;;10244119;28;20142;-44
2024/01/06 18:20:08;;;;;;;6.35;2.20;;;25.70;37.60;;;;;;10229209;28;20074;-45
2024/01/06 18:25:11;;;;;;;6.20;2.20;;;25.70;37.60;;;;;;10210443;28;20047;-45
2024/01/06 18:30:14;;;;;;;7.78;2.50;;;25.70;37.70;;;;;;10239216;28;20130;-43
2024/01/06 18:35:17;;;;;;;11.00;2.50;;;25.60;37.90;;;;;;10235854;28;20510;-43
2024/01/06 18:40:18;;;;;;;10.98;2.85;;;25.70;38.10;;;;;;10229106;28;20054;-43
2024/01/06 18:45:20;;;;;;;7.35;2.00;;;25.70;38.80;;;;;;10230112;28;20097;-42
2024/01/06 18:50:23;;;;;;;6.90;2.17;;;25.70;39.00;;;;;;10237733;28;20043;-42
2024/01/06 18:55:24;;;;;;;5.55;2.10;;;25.60;39.10;;;;;;10228631;28;20497;-42
2024/01/06 19:00:26;;;;;;;10.45;2.38;;;25.70;39.50;;;;;;10224903;28;20053;-42
2024/01/06 19:05:31;;;;;;;12.85;2.40;;;25.40;40.00;;;;;;10229732;28;20095;-43
2024/01/06 19:10:33;;;;;;;5.43;2.25;;;25.30;40.70;;;;;;10228025;28;20151;-43
2024/01/06 19:15:37;;;;;;;7.10;2.10;;;25.10;42.00;;;;;;10232823;28;20048;-43
2024/01/06 19:20:40;;;;;;;7.57;2.17;;;25.10;42.60;;;;;;10225351;28;20058;-47
2024/01/06 19:25:41;;;;;;;6.70;2.20;;;24.90;43.10;;;;;;10226737;28;20054;-42
2024/01/06 19:30:43;;;;;;;11.90;2.22;;;25.00;42.00;;;;;;10226282;28;20047;-44
2024/01/06 19:35:46;;;;;;;9.23;2.13;;;25.10;41.10;;;;;;10238884;28;20043;-42
2024/01/06 19:40:47;;;;;;;6.18;1.98;;;25.00;40.60;;;;;;10229322;28;20054;-43
2024/01/06 19:45:52;;;;;;;4.60;1.70;;;24.90;40.30;;;;;;10236722;28;20062;-44
2024/01/06 19:50:55;;;;;;;4.03;1.90;;;24.90;40.80;;;;;;10217901;28;20072;-44
2024/01/06 19:55:57;;;;;;;8.50;1.63;;;24.80;40.00;;;;;;10186343;28;20051;-43
2024/01/06 20:00:59;;;;;;;2.90;1.60;;;24.80;39.90;;;;;;10207972;28;20053;-43
2024/01/06 20:06:03;;;;;;;4.95;1.80;;;24.80;40.10;;;;;;10233907;28;20134;-44
2024/01/06 20:11:05;;;;;;;5.78;1.70;;;24.70;40.00;;;;;;10229332;28;20550;-44
2024/01/06 20:16:07;;;;;;;6.35;1.60;;;24.70;40.50;;;;;;10232273;28;20898;-45
2024/01/06 20:21:12;;;;;;;6.32;1.60;;;24.50;41.10;;;;;;10232591;28;20057;-42
2024/01/06 20:26:14;;;;;;;4.28;1.88;;;24.50;41.10;;;;;;10241163;28;20093;-42
2024/01/06 20:31:17;;;;;;;5.70;1.80;;;24.40;41.50;;;;;;10236777;28;20196;-42
2024/01/06 20:36:20;;;;;;;4.13;1.50;;;24.30;41.60;;;;;;10228508;28;20105;-42
2024/01/06 20:41:22;;;;;;;6.40;1.70;;;24.20;41.70;;;;;;10232344;28;20138;-47
2024/01/06 20:46:25;;;;;;;4.82;1.75;;;24.00;42.20;;;;;;10232976;28;20134;-42
2024/01/06 20:51:28;;;;;;;7.03;1.67;;;24.00;42.40;;;;;;10234826;28;20057;-42
2024/01/06 20:56:30;;;;;;;2.53;1.48;;;23.80;42.70;;;;;;10234832;28;20417;-43
2024/01/06 21:01:31;;;;;;;3.83;1.70;;;23.80;42.70;;;;;;10236162;28;20051;-42
2024/01/06 21:06:35;;;;;;;4.70;1.45;;;23.70;42.90;;;;;;10233804;28;20052;-45
2024/01/06 21:11:37;;;;;;;4.15;1.80;;;23.60;43.10;;;;;;10235308;28;20047;-42
2024/01/06 21:16:39;;;;;;;7.50;1.50;;;23.60;43.10;;;;;;10238070;28;20059;-43
2024/01/06 21:21:44;;;;;;;3.08;1.55;;;23.50;43.30;;;;;;10228758;28;20044;-42
2024/01/06 21:26:46;;;;;;;4.63;1.40;;;23.50;43.80;;;;;;10249165;28;20053;-46
2024/01/06 21:31:47;;;;;;;4.38;1.35;;;23.30;43.80;;;;;;10231714;28;20130;-43
2024/01/06 21:36:50;;;;;;;5.05;1.40;;;23.20;43.90;;;;;;10240920;28;20043;-45
2024/01/06 21:41:52;;;;;;;3.17;1.40;;;23.10;44.20;;;;;;10227492;28;20047;-44
2024/01/06 21:46:56;;;;;;;8.70;1.00;;;23.10;44.20;;;;;;10229931;28;20581;-43
2024/01/06 21:51:59;;;;;;;7.85;1.48;;;23.10;44.50;;;;;;10235074;28;20051;-43
2024/01/06 21:57:01;;;;;;;3.72;1.30;;;23.20;44.10;;;;;;10230370;28;20469;-45
2024/01/06 22:02:03;;;;;;;4.22;1.10;;;23.20;43.80;;;;;;10234665;28;20135;-42
2024/01/06 22:07:06;;;;;;;3.42;1.20;;;23.30;43.50;;;;;;10221659;28;20085;-42
2024/01/06 22:12:08;;;;;;;3.47;1.10;;;23.30;43.50;;;;;;10219344;28;20141;-41
2024/01/06 22:17:09;;;;;;;2.85;1.30;;;23.20;43.60;;;;;;10239781;28;20117;-45
2024/01/06 22:22:13;;;;;;;2.63;1.30;;;23.10;43.70;;;;;;10221978;28;20138;-43
2024/01/06 22:27:16;;;;;;;5.55;1.60;;;23.10;43.30;;;;;;10201574;28;20615;-43
2024/01/06 22:32:17;;;;;;;2.75;1.20;;;23.10;43.20;;;;;;10182773;28;20432;-42
2024/01/06 22:37:20;;;;;;;2.88;1.13;;;23.10;42.90;;;;;;10211418;29;20054;-43
2024/01/06 22:42:22;;;;;;;2.88;0.90;;;23.00;42.80;;;;;;10235073;28;20074;-42
2024/01/06 22:47:23;;;;;;;2.42;1.10;;;22.90;42.70;;;;;;10202093;28;20048;-43
2024/01/06 22:52:26;;;;;;;3.95;1.13;;;22.90;42.60;;;;;;10185170;28;20056;-45
2024/01/06 22:57:28;;;;;;;2.60;1.00;;;22.90;42.50;;;;;;10186114;28;20044;-44
2024/01/06 23:02:30;;;;;;;2.25;1.17;;;22.90;42.40;;;;;;10215476;28;20043;-43
2024/01/06 23:07:33;;;;;;;1.92;0.93;;;22.80;42.40;;;;;;10231812;28;20049;-42
2024/01/06 23:12:34;;;;;;;2.00;1.00;;;22.80;42.30;;;;;;10225171;28;20130;-42
2024/01/06 23:17:36;;;;;;;1.60;0.95;;;22.80;42.20;;;;;;10224224;28;20094;-42
2024/01/06 23:22:39;;;;;;;1.38;0.90;;;22.80;42.00;;;;;;10217354;28;20577;-43
2024/01/06 23:27:41;;;;;;;1.33;0.90;;;22.70;42.00;;;;;;10222375;28;20048;-49
2024/01/06 23:32:42;;;;;;;2.15;1.05;;;22.70;42.00;;;;;;10229334;28;20043;-42
2024/01/06 23:37:50;;;;;;;3.17;1.00;;;22.70;41.90;;;;;;10228933;28;20047;-42
2024/01/06 23:42:51;;;;;;;1.50;0.80;;;22.70;41.80;;;;;;10234140;28;20075;-45
2024/01/06 23:47:53;;;;;;;1.95;0.95;;;22.60;41.80;;;;;;10219847;28;20058;-42
2024/01/06 23:52:56;;;;;;;1.83;0.80;;;22.60;41.80;;;;;;10205906;28;20055;-43
2024/01/06 23:57:58;;;;;;;1.88;0.80;;;22.60;41.80;;;;;;10197008;28;20503;-45
